sensor_id;sensor_type;location;lat;lon;timestamp;pressure;altitude;pressure_sealevel;temperature;humidity
39455;BME280;25155;41.890;23.446;2022-09-27T00:00:40;91250.50;;;16.29;69.76
39455;BME280;25155;41.890;23.446;2022-09-27T00:03:08;91238.13;;;16.29;69.65
39455;BME280;25155;41.890;23.446;2022-09-27T00:05:35;91212.91;;;16.19;69.65
39455;BME280;25155;41.890;23.446;2022-09-27T00:08:03;91218.16;;;16.28;69.46
39455;BME280;25155;41.890;23.446;2022-09-27T00:10:31;91226.84;;;16.29;69.08
39455;BME280;25155;41.890;23.446;2022-09-27T00:12:58;91218.94;;;16.29;69.69
39455;BME280;25155;41.890;23.446;2022-09-27T00:15:27;91224.50;;;16.27;69.39
39455;BME280;25155;41.890;23.446;2022-09-27T00:17:54;91225.13;;;16.24;69.14
39455;BME280;25155;41.890;23.446;2022-09-27T00:20:22;91224.81;;;16.26;69.73
39455;BME280;25155;41.890;23.446;2022-09-27T00:22:50;91216.47;;;16.23;69.41
39455;BME280;25155;41.890;23.446;2022-09-27T00:25:17;91211.53;;;16.22;70.52
39455;BME280;25155;41.890;23.446;2022-09-27T00:27:45;91210.16;;;16.16;71.69
39455;BME280;25155;41.890;23.446;2022-09-27T00:30:12;91210.91;;;16.16;71.30
39455;BME280;25155;41.890;23.446;2022-09-27T00:32:41;91204.91;;;15.98;72.85
39455;BME280;25155;41.890;23.446;2022-09-27T00:35:09;91210.19;;;15.98;73.63
39455;BME280;25155;41.890;23.446;2022-09-27T00:37:37;91212.03;;;15.98;72.89
39455;BME280;25155;41.890;23.446;2022-09-27T00:40:05;91207.56;;;15.98;72.59
39455;BME280;25155;41.890;23.446;2022-09-27T00:42:33;91183.75;;;15.95;72.83
39455;BME280;25155;41.890;23.446;2022-09-27T00:45:05;91184.97;;;15.97;72.49
39455;BME280;25155;41.890;23.446;2022-09-27T00:47:44;91179.72;;;15.97;71.98
39455;BME280;25155;41.890;23.446;2022-09-27T00:50:28;91168.88;;;15.99;71.45
39455;BME280;25155;41.890;23.446;2022-09-27T00:53:03;91191.00;;;15.98;73.61
39455;BME280;25155;41.890;23.446;2022-09-27T00:55:37;91177.88;;;15.89;73.67
39455;BME280;25155;41.890;23.446;2022-09-27T00:58:07;91141.66;;;15.95;73.77
39455;BME280;25155;41.890;23.446;2022-09-27T01:00:40;91151.56;;;15.98;72.80
39455;BME280;25155;41.890;23.446;2022-09-27T01:03:14;91145.53;;;15.97;72.53
39455;BME280;25155;41.890;23.446;2022-09-27T01:05:45;91127.88;;;15.98;72.38
39455;BME280;25155;41.890;23.446;2022-09-27T01:08:13;91133.16;;;15.98;72.21
39455;BME280;25155;41.890;23.446;2022-09-27T01:10:58;91137.97;;;15.96;72.36
39455;BME280;25155;41.890;23.446;2022-09-27T01:13:35;91141.66;;;15.95;71.85
39455;BME280;25155;41.890;23.446;2022-09-27T01:16:12;91148.63;;;15.99;72.21
39455;BME280;25155;41.890;23.446;2022-09-27T01:18:54;91160.38;;;15.93;71.60
39455;BME280;25155;41.890;23.446;2022-09-27T01:21:48;91155.75;;;15.90;71.94
39455;BME280;25155;41.890;23.446;2022-09-27T01:27:48;91145.25;;;15.81;71.86
39455;BME280;25155;41.890;23.446;2022-09-27T01:30:23;91147.13;;;15.81;73.36
39455;BME280;25155;41.890;23.446;2022-09-27T01:33:02;91138.59;;;15.75;73.84
39455;BME280;25155;41.890;23.446;2022-09-27T01:35:35;91136.16;;;15.79;73.24
39455;BME280;25155;41.890;23.446;2022-09-27T01:38:14;91124.22;;;15.81;72.50
39455;BME280;25155;41.890;23.446;2022-09-27T01:40:50;91111.22;;;15.85;72.50
39455;BME280;25155;41.890;23.446;2022-09-27T01:43:23;91126.38;;;15.88;72.23
39455;BME280;25155;41.890;23.446;2022-09-27T01:45:57;91122.53;;;15.85;72.27
39455;BME280;25155;41.890;23.446;2022-09-27T01:48:31;91106.25;;;15.92;72.08
39455;BME280;25155;41.890;23.446;2022-09-27T01:51:05;91100.22;;;15.92;72.20
39455;BME280;25155;41.890;23.446;2022-09-27T01:53:36;91108.56;;;15.94;71.97
39455;BME280;25155;41.890;23.446;2022-09-27T01:56:11;91113.03;;;15.93;72.34
39455;BME280;25155;41.890;23.446;2022-09-27T01:58:43;91109.03;;;15.87;72.09
39455;BME280;25155;41.890;23.446;2022-09-27T02:01:15;91111.84;;;15.82;72.79
39455;BME280;25155;41.890;23.446;2022-09-27T02:03:48;91110.31;;;15.63;75.00
39455;BME280;25155;41.890;23.446;2022-09-27T02:06:19;91101.41;;;15.56;75.30
39455;BME280;25155;41.890;23.446;2022-09-27T02:08:51;91093.34;;;15.52;75.29
39455;BME280;25155;41.890;23.446;2022-09-27T02:11:19;91106.38;;;15.22;76.00
39455;BME280;25155;41.890;23.446;2022-09-27T02:13:51;91095.69;;;15.45;75.13
39455;BME280;25155;41.890;23.446;2022-09-27T02:16:27;91110.66;;;15.53;75.19
39455;BME280;25155;41.890;23.446;2022-09-27T02:19:03;91104.47;;;15.58;74.73
39455;BME280;25155;41.890;23.446;2022-09-27T02:21:39;91117.75;;;15.61;74.77
39455;BME280;25155;41.890;23.446;2022-09-27T02:24:12;91096.09;;;15.64;74.03
39455;BME280;25155;41.890;23.446;2022-09-27T02:26:43;91093.63;;;15.68;73.99
39455;BME280;25155;41.890;23.446;2022-09-27T02:29:15;91089.59;;;15.71;73.79
39455;BME280;25155;41.890;23.446;2022-09-27T02:31:48;91078.94;;;15.76;73.31
39455;BME280;25155;41.890;23.446;2022-09-27T02:34:18;91072.72;;;15.80;72.96
39455;BME280;25155;41.890;23.446;2022-09-27T02:36:47;91082.59;;;15.83;72.96
39455;BME280;25155;41.890;23.446;2022-09-27T02:39:18;91081.84;;;15.83;73.03
39455;BME280;25155;41.890;23.446;2022-09-27T02:41:46;91080.28;;;15.82;72.31
39455;BME280;25155;41.890;23.446;2022-09-27T02:44:14;91089.88;;;15.86;72.89
39455;BME280;25155;41.890;23.446;2022-09-27T02:47:18;91071.50;;;15.78;72.52
39455;BME280;25155;41.890;23.446;2022-09-27T02:49:59;91073.97;;;15.74;73.06
39455;BME280;25155;41.890;23.446;2022-09-27T02:52:38;91085.09;;;15.71;72.75
39455;BME280;25155;41.890;23.446;2022-09-27T02:55:13;91096.25;;;15.77;72.96
39455;BME280;25155;41.890;23.446;2022-09-27T02:57:54;91094.84;;;15.71;73.80
39455;BME280;25155;41.890;23.446;2022-09-27T03:00:29;91081.84;;;15.65;73.57
39455;BME280;25155;41.890;23.446;2022-09-27T03:03:04;91073.66;;;15.67;73.42
39455;BME280;25155;41.890;23.446;2022-09-27T03:05:38;91057.75;;;15.63;73.74
39455;BME280;25155;41.890;23.446;2022-09-27T03:08:06;91044.31;;;15.65;73.54
39455;BME280;25155;41.890;23.446;2022-09-27T03:10:34;91049.88;;;15.63;73.68
39455;BME280;25155;41.890;23.446;2022-09-27T03:13:02;91049.56;;;15.65;74.08
39455;BME280;25155;41.890;23.446;2022-09-27T03:15:30;91033.47;;;15.66;73.76
39455;BME280;25155;41.890;23.446;2022-09-27T03:17:57;91039.19;;;15.68;73.66
39455;BME280;25155;41.890;23.446;2022-09-27T03:20:26;91048.16;;;15.67;74.02
39455;BME280;25155;41.890;23.446;2022-09-27T03:22:54;91046.16;;;15.64;75.00
39455;BME280;25155;41.890;23.446;2022-09-27T03:25:22;91041.66;;;15.65;74.86
39455;BME280;25155;41.890;23.446;2022-09-27T03:27:50;91041.34;;;15.66;73.94
39455;BME280;25155;41.890;23.446;2022-09-27T03:30:17;91046.63;;;15.66;73.77
39455;BME280;25155;41.890;23.446;2022-09-27T03:32:45;91051.69;;;15.72;74.02
39455;BME280;25155;41.890;23.446;2022-09-27T03:35:12;91057.59;;;15.68;74.41
39455;BME280;25155;41.890;23.446;2022-09-27T03:37:42;91052.50;;;15.63;74.84
39455;BME280;25155;41.890;23.446;2022-09-27T03:40:10;91040.91;;;15.64;74.76
39455;BME280;25155;41.890;23.446;2022-09-27T03:42:38;91035.78;;;15.68;74.56
39455;BME280;25155;41.890;23.446;2022-09-27T03:45:06;91039.97;;;15.69;73.81
39455;BME280;25155;41.890;23.446;2022-09-27T03:47:34;91023.59;;;15.63;73.99
39455;BME280;25155;41.890;23.446;2022-09-27T03:50:06;91029.94;;;15.62;74.33
39455;BME280;25155;41.890;23.446;2022-09-27T03:52:34;91017.25;;;15.64;73.94
39455;BME280;25155;41.890;23.446;2022-09-27T03:55:04;91031.47;;;15.63;73.66
39455;BME280;25155;41.890;23.446;2022-09-27T03:57:31;91031.78;;;15.62;73.28
39455;BME280;25155;41.890;23.446;2022-09-27T03:59:58;91033.78;;;15.65;73.42
39455;BME280;25155;41.890;23.446;2022-09-27T04:02:26;91040.47;;;15.62;73.37
39455;BME280;25155;41.890;23.446;2022-09-27T04:04:54;91044.16;;;15.61;73.19
39455;BME280;25155;41.890;23.446;2022-09-27T04:07:21;91043.72;;;15.59;73.59
39455;BME280;25155;41.890;23.446;2022-09-27T04:09:49;91045.09;;;15.57;73.24
39455;BME280;25155;41.890;23.446;2022-09-27T04:12:18;91035.53;;;15.52;73.25
39455;BME280;25155;41.890;23.446;2022-09-27T04:14:45;91032.09;;;15.60;73.46
39455;BME280;25155;41.890;23.446;2022-09-27T04:17:13;91023.13;;;15.61;73.17
39455;BME280;25155;41.890;23.446;2022-09-27T04:19:40;91022.50;;;15.64;73.30
39455;BME280;25155;41.890;23.446;2022-09-27T04:22:08;91015.38;;;15.65;73.40
39455;BME280;25155;41.890;23.446;2022-09-27T04:24:35;91026.03;;;15.68;72.86
39455;BME280;25155;41.890;23.446;2022-09-27T04:27:03;91036.25;;;15.70;73.11
39455;BME280;25155;41.890;23.446;2022-09-27T04:29:31;91031.91;;;15.65;73.07
39455;BME280;25155;41.890;23.446;2022-09-27T04:31:59;91030.25;;;15.61;74.09
39455;BME280;25155;41.890;23.446;2022-09-27T04:34:26;91033.97;;;15.60;74.49
39455;BME280;25155;41.890;23.446;2022-09-27T04:37:08;91046.81;;;15.53;75.44
39455;BME280;25155;41.890;23.446;2022-09-27T04:39:36;91038.63;;;15.54;74.70
39455;BME280;25155;41.890;23.446;2022-09-27T04:42:04;91034.91;;;15.55;74.70
39455;BME280;25155;41.890;23.446;2022-09-27T04:44:33;91025.94;;;15.56;74.32
39455;BME280;25155;41.890;23.446;2022-09-27T04:47:01;91019.59;;;15.57;74.21
39455;BME280;25155;41.890;23.446;2022-09-27T04:49:28;91029.94;;;15.62;74.04
39455;BME280;25155;41.890;23.446;2022-09-27T04:52:08;91027.31;;;15.62;74.26
39455;BME280;25155;41.890;23.446;2022-09-27T04:54:35;91025.13;;;15.64;73.63
39455;BME280;25155;41.890;23.446;2022-09-27T04:57:03;91031.28;;;15.68;73.66
39455;BME280;25155;41.890;23.446;2022-09-27T04:59:30;91020.59;;;15.74;73.45
39455;BME280;25155;41.890;23.446;2022-09-27T05:01:59;91029.59;;;15.73;73.61
39455;BME280;25155;41.890;23.446;2022-09-27T05:04:27;91026.06;;;15.77;73.79
39455;BME280;25155;41.890;23.446;2022-09-27T05:06:54;91012.59;;;15.79;73.78
39455;BME280;25155;41.890;23.446;2022-09-27T05:09:21;91007.00;;;15.80;73.33
39455;BME280;25155;41.890;23.446;2022-09-27T05:11:49;91004.03;;;15.82;73.29
39455;BME280;25155;41.890;23.446;2022-09-27T05:14:17;91001.09;;;15.83;72.81
39455;BME280;25155;41.890;23.446;2022-09-27T05:16:45;91003.59;;;15.80;72.85
39455;BME280;25155;41.890;23.446;2022-09-27T05:19:14;91019.50;;;15.83;72.73
39455;BME280;25155;41.890;23.446;2022-09-27T05:21:41;91028.94;;;15.84;72.90
39455;BME280;25155;41.890;23.446;2022-09-27T05:24:09;91007.78;;;15.81;72.89
39455;BME280;25155;41.890;23.446;2022-09-27T05:26:36;90994.94;;;15.79;72.66
39455;BME280;25155;41.890;23.446;2022-09-27T05:29:03;90990.00;;;15.78;72.71
39455;BME280;25155;41.890;23.446;2022-09-27T05:31:31;90970.84;;;15.68;72.56
39455;BME280;25155;41.890;23.446;2022-09-27T05:33:58;91012.13;;;15.77;72.55
39455;BME280;25155;41.890;23.446;2022-09-27T05:36:27;91010.41;;;15.81;73.13
39455;BME280;25155;41.890;23.446;2022-09-27T05:38:55;90989.56;;;15.76;73.35
39455;BME280;25155;41.890;23.446;2022-09-27T05:41:23;90990.00;;;15.78;73.04
39455;BME280;25155;41.890;23.446;2022-09-27T05:43:51;90979.50;;;15.78;73.16
39455;BME280;25155;41.890;23.446;2022-09-27T05:46:18;90985.97;;;15.72;73.68
39455;BME280;25155;41.890;23.446;2022-09-27T05:48:45;90994.63;;;15.72;75.19
39455;BME280;25155;41.890;23.446;2022-09-27T05:51:13;90999.44;;;15.70;74.60
39455;BME280;25155;41.890;23.446;2022-09-27T05:53:41;91014.00;;;15.67;74.16
39455;BME280;25155;41.890;23.446;2022-09-27T05:56:09;90988.22;;;15.52;74.91
39455;BME280;25155;41.890;23.446;2022-09-27T05:58:36;91012.25;;;15.72;75.39
39455;BME280;25155;41.890;23.446;2022-09-27T06:01:05;91011.69;;;15.66;75.57
39455;BME280;25155;41.890;23.446;2022-09-27T06:03:33;91016.91;;;15.75;75.22
39455;BME280;25155;41.890;23.446;2022-09-27T06:06:01;91021.56;;;15.78;74.78
39455;BME280;25155;41.890;23.446;2022-09-27T06:08:32;91018.28;;;15.81;74.29
39455;BME280;25155;41.890;23.446;2022-09-27T06:11:02;91008.53;;;15.81;74.45
39455;BME280;25155;41.890;23.446;2022-09-27T06:13:31;91005.91;;;15.81;74.40
39455;BME280;25155;41.890;23.446;2022-09-27T06:15:59;91019.50;;;15.92;74.70
39455;BME280;25155;41.890;23.446;2022-09-27T06:18:26;91020.81;;;15.98;74.47
39455;BME280;25155;41.890;23.446;2022-09-27T06:20:54;91014.19;;;16.01;74.12
39455;BME280;25155;41.890;23.446;2022-09-27T06:23:22;91017.38;;;16.07;74.25
39455;BME280;25155;41.890;23.446;2022-09-27T06:25:50;91018.94;;;16.08;74.88
39455;BME280;25155;41.890;23.446;2022-09-27T06:28:19;91014.00;;;16.06;75.31
39455;BME280;25155;41.890;23.446;2022-09-27T06:30:48;91014.72;;;16.15;75.10
39455;BME280;25155;41.890;23.446;2022-09-27T06:33:18;91019.47;;;16.22;75.75
39455;BME280;25155;41.890;23.446;2022-09-27T06:35:46;91012.09;;;16.15;75.43
39455;BME280;25155;41.890;23.446;2022-09-27T06:38:16;91025.19;;;16.24;75.68
39455;BME280;25155;41.890;23.446;2022-09-27T06:40:45;91018.19;;;16.28;75.47
39455;BME280;25155;41.890;23.446;2022-09-27T06:43:13;91026.38;;;16.27;75.07
39455;BME280;25155;41.890;23.446;2022-09-27T06:45:43;91035.78;;;16.36;74.75
39455;BME280;25155;41.890;23.446;2022-09-27T06:48:12;91038.03;;;16.47;74.48
39455;BME280;25155;41.890;23.446;2022-09-27T06:50:41;91027.34;;;16.52;74.83
39455;BME280;25155;41.890;23.446;2022-09-27T06:53:11;91024.50;;;16.57;74.27
39455;BME280;25155;41.890;23.446;2022-09-27T06:55:40;91028.03;;;16.61;73.96
39455;BME280;25155;41.890;23.446;2022-09-27T06:58:10;91035.28;;;16.64;74.04
39455;BME280;25155;41.890;23.446;2022-09-27T07:00:56;91026.03;;;16.58;73.52
39455;BME280;25155;41.890;23.446;2022-09-27T07:03:24;91040.34;;;16.69;73.85
39455;BME280;25155;41.890;23.446;2022-09-27T07:05:58;91038.16;;;16.71;73.58
39455;BME280;25155;41.890;23.446;2022-09-27T07:08:26;91050.69;;;16.74;73.66
39455;BME280;25155;41.890;23.446;2022-09-27T07:10:55;91052.88;;;16.72;73.46
39455;BME280;25155;41.890;23.446;2022-09-27T07:13:28;91049.16;;;16.73;73.08
39455;BME280;25155;41.890;23.446;2022-09-27T07:15:57;91048.53;;;16.76;73.08
39455;BME280;25155;41.890;23.446;2022-09-27T07:18:25;91045.69;;;16.82;72.99
39455;BME280;25155;41.890;23.446;2022-09-27T07:20:52;91037.78;;;16.82;72.98
39455;BME280;25155;41.890;23.446;2022-09-27T07:23:20;91048.59;;;16.89;72.58
39455;BME280;25155;41.890;23.446;2022-09-27T07:25:47;91043.00;;;16.90;73.37
39455;BME280;25155;41.890;23.446;2022-09-27T07:28:17;91030.59;;;16.91;73.06
39455;BME280;25155;41.890;23.446;2022-09-27T07:30:45;91026.25;;;16.95;72.65
39455;BME280;25155;41.890;23.446;2022-09-27T07:33:15;91037.34;;;17.01;73.06
39455;BME280;25155;41.890;23.446;2022-09-27T07:35:42;91036.94;;;17.11;73.24
39455;BME280;25155;41.890;23.446;2022-09-27T07:38:11;91026.88;;;17.25;73.38
39455;BME280;25155;41.890;23.446;2022-09-27T07:40:39;91018.22;;;17.25;73.62
39455;BME280;25155;41.890;23.446;2022-09-27T07:43:07;91041.75;;;17.42;73.12
39455;BME280;25155;41.890;23.446;2022-09-27T07:45:36;91028.34;;;17.47;72.30
39455;BME280;25155;41.890;23.446;2022-09-27T07:48:04;91025.41;;;17.49;71.99
39455;BME280;25155;41.890;23.446;2022-09-27T07:50:33;91032.97;;;17.50;71.38
39455;BME280;25155;41.890;23.446;2022-09-27T07:53:03;91049.69;;;17.55;71.24
39455;BME280;25155;41.890;23.446;2022-09-27T07:55:31;91054.31;;;17.58;70.76
39455;BME280;25155;41.890;23.446;2022-09-27T07:58:02;91058.03;;;17.57;70.31
39455;BME280;25155;41.890;23.446;2022-09-27T08:00:29;91049.25;;;17.19;70.74
39455;BME280;25155;41.890;23.446;2022-09-27T08:02:56;91033.63;;;17.35;70.61
39455;BME280;25155;41.890;23.446;2022-09-27T08:05:24;91045.34;;;17.38;70.28
39455;BME280;25155;41.890;23.446;2022-09-27T08:07:56;91043.50;;;17.38;69.88
39455;BME280;25155;41.890;23.446;2022-09-27T08:10:23;91047.03;;;17.42;69.58
39455;BME280;25155;41.890;23.446;2022-09-27T08:12:52;91042.97;;;17.45;69.84
39455;BME280;25155;41.890;23.446;2022-09-27T08:15:19;91033.31;;;17.49;70.11
39455;BME280;25155;41.890;23.446;2022-09-27T08:17:47;91029.69;;;17.53;69.43
39455;BME280;25155;41.890;23.446;2022-09-27T08:20:16;91027.97;;;17.58;69.93
39455;BME280;25155;41.890;23.446;2022-09-27T08:22:43;91025.97;;;17.67;69.76
39455;BME280;25155;41.890;23.446;2022-09-27T08:25:12;91027.63;;;17.71;69.46
39455;BME280;25155;41.890;23.446;2022-09-27T08:27:40;91034.25;;;17.78;69.77
39455;BME280;25155;41.890;23.446;2022-09-27T08:30:09;91038.06;;;17.80;69.46
39455;BME280;25155;41.890;23.446;2022-09-27T08:32:36;91029.50;;;17.71;68.62
39455;BME280;25155;41.890;23.446;2022-09-27T08:35:05;91036.88;;;17.78;68.65
39455;BME280;25155;41.890;23.446;2022-09-27T08:37:36;91019.50;;;17.77;69.25
39455;BME280;25155;41.890;23.446;2022-09-27T08:40:12;91029.75;;;17.91;69.02
39455;BME280;25155;41.890;23.446;2022-09-27T08:42:53;91025.47;;;17.98;69.13
39455;BME280;25155;41.890;23.446;2022-09-27T08:45:29;91029.56;;;18.08;68.63
39455;BME280;25155;41.890;23.446;2022-09-27T08:48:00;91029.09;;;18.18;68.91
39455;BME280;25155;41.890;23.446;2022-09-27T08:50:31;91018.41;;;18.27;68.60
39455;BME280;25155;41.890;23.446;2022-09-27T08:53:03;91012.25;;;18.35;68.28
39455;BME280;25155;41.890;23.446;2022-09-27T08:55:36;91004.56;;;18.42;67.77
39455;BME280;25155;41.890;23.446;2022-09-27T08:58:12;90984.66;;;18.33;67.94
39455;BME280;25155;41.890;23.446;2022-09-27T09:00:41;91015.63;;;18.60;67.55
39455;BME280;25155;41.890;23.446;2022-09-27T09:03:16;91018.03;;;18.66;67.15
39455;BME280;25155;41.890;23.446;2022-09-27T09:05:55;91015.94;;;18.71;67.41
39455;BME280;25155;41.890;23.446;2022-09-27T09:08:32;91010.41;;;18.76;66.90
39455;BME280;25155;41.890;23.446;2022-09-27T09:11:10;90992.50;;;18.70;66.83
39455;BME280;25155;41.890;23.446;2022-09-27T09:14:24;90999.06;;;18.76;66.04
39455;BME280;25155;41.890;23.446;2022-09-27T09:17:01;90992.47;;;18.82;66.41
39455;BME280;25155;41.890;23.446;2022-09-27T09:19:49;90987.47;;;18.93;66.06
39455;BME280;25155;41.890;23.446;2022-09-27T09:22:45;90992.84;;;18.96;66.12
39455;BME280;25155;41.890;23.446;2022-09-27T09:25:22;90983.88;;;19.13;66.80
39455;BME280;25155;41.890;23.446;2022-09-27T09:28:05;90974.88;;;19.30;65.87
39455;BME280;25155;41.890;23.446;2022-09-27T09:30:45;90980.94;;;19.47;62.74
39455;BME280;25155;41.890;23.446;2022-09-27T09:33:21;90974.44;;;19.44;63.26
39455;BME280;25155;41.890;23.446;2022-09-27T09:35:52;90982.41;;;19.60;64.18
39455;BME280;25155;41.890;23.446;2022-09-27T09:38:28;90975.41;;;19.84;63.01
39455;BME280;25155;41.890;23.446;2022-09-27T09:41:02;90982.06;;;20.09;61.91
39455;BME280;25155;41.890;23.446;2022-09-27T09:43:34;90973.72;;;20.27;62.44
39455;BME280;25155;41.890;23.446;2022-09-27T09:46:09;90976.16;;;20.52;61.95
39455;BME280;25155;41.890;23.446;2022-09-27T09:48:44;90961.94;;;20.60;61.97
39455;BME280;25155;41.890;23.446;2022-09-27T09:51:17;90964.28;;;20.81;61.60
39455;BME280;25155;41.890;23.446;2022-09-27T09:53:51;90959.59;;;20.94;61.02
39455;BME280;25155;41.890;23.446;2022-09-27T09:56:23;90944.94;;;21.00;59.80
39455;BME280;25155;41.890;23.446;2022-09-27T09:58:55;90950.25;;;21.00;58.76
39455;BME280;25155;41.890;23.446;2022-09-27T10:01:29;90954.16;;;21.06;58.55
39455;BME280;25155;41.890;23.446;2022-09-27T10:03:59;90944.75;;;21.09;58.04
39455;BME280;25155;41.890;23.446;2022-09-27T10:06:28;90949.47;;;20.99;58.19
39455;BME280;25155;41.890;23.446;2022-09-27T10:08:56;90928.00;;;20.85;59.28
39455;BME280;25155;41.890;23.446;2022-09-27T10:11:26;90931.59;;;21.16;60.00
39455;BME280;25155;41.890;23.446;2022-09-27T10:13:56;90933.72;;;21.30;56.24
39455;BME280;25155;41.890;23.446;2022-09-27T10:16:25;90920.19;;;21.12;56.94
39455;BME280;25155;41.890;23.446;2022-09-27T10:18:58;90935.59;;;21.06;57.45
39455;BME280;25155;41.890;23.446;2022-09-27T10:21:28;90935.13;;;21.00;56.56
39455;BME280;25155;41.890;23.446;2022-09-27T10:24:08;90933.09;;;20.94;57.07
39455;BME280;25155;41.890;23.446;2022-09-27T10:26:37;90929.38;;;20.98;56.88
39455;BME280;25155;41.890;23.446;2022-09-27T10:29:29;90928.91;;;20.93;56.94
39455;BME280;25155;41.890;23.446;2022-09-27T10:31:58;90923.59;;;20.93;56.93
39455;BME280;25155;41.890;23.446;2022-09-27T10:34:31;90921.81;;;20.97;57.46
39455;BME280;25155;41.890;23.446;2022-09-27T10:37:05;90928.56;;;20.94;57.21
39455;BME280;25155;41.890;23.446;2022-09-27T10:39:33;90927.81;;;20.94;57.76
39455;BME280;25155;41.890;23.446;2022-09-27T10:42:03;90916.84;;;20.95;57.76
39455;BME280;25155;41.890;23.446;2022-09-27T10:44:45;90907.47;;;21.01;57.55
39455;BME280;25155;41.890;23.446;2022-09-27T10:47:17;90915.94;;;21.07;57.13
39455;BME280;25155;41.890;23.446;2022-09-27T10:49:48;90913.75;;;21.13;57.32
39455;BME280;25155;41.890;23.446;2022-09-27T10:52:18;90909.84;;;21.07;56.11
39455;BME280;25155;41.890;23.446;2022-09-27T10:54:53;90915.31;;;20.94;56.50
39455;BME280;25155;41.890;23.446;2022-09-27T10:57:22;90918.03;;;20.98;56.97
39455;BME280;25155;41.890;23.446;2022-09-27T10:59:52;90905.91;;;20.97;56.60
39455;BME280;25155;41.890;23.446;2022-09-27T11:02:24;90912.50;;;21.07;57.11
39455;BME280;25155;41.890;23.446;2022-09-27T11:05:05;90891.38;;;21.10;56.46
39455;BME280;25155;41.890;23.446;2022-09-27T11:07:46;90890.78;;;21.20;57.22
39455;BME280;25155;41.890;23.446;2022-09-27T11:10:26;90901.84;;;21.26;56.52
39455;BME280;25155;41.890;23.446;2022-09-27T11:13:07;90896.88;;;21.25;55.66
39455;BME280;25155;41.890;23.446;2022-09-27T11:15:49;90888.38;;;21.12;56.01
39455;BME280;25155;41.890;23.446;2022-09-27T11:18:27;90890.13;;;21.04;56.45
39455;BME280;25155;41.890;23.446;2022-09-27T11:21:04;90889.41;;;21.07;56.32
39455;BME280;25155;41.890;23.446;2022-09-27T11:23:46;90890.94;;;21.08;55.92
39455;BME280;25155;41.890;23.446;2022-09-27T11:26:28;90886.16;;;20.94;55.89
39455;BME280;25155;41.890;23.446;2022-09-27T11:29:09;90884.50;;;20.86;55.95
39455;BME280;25155;41.890;23.446;2022-09-27T11:31:48;90878.84;;;20.88;56.73
39455;BME280;25155;41.890;23.446;2022-09-27T11:34:38;90881.19;;;20.93;56.97
39455;BME280;25155;41.890;23.446;2022-09-27T11:37:16;90875.56;;;20.94;56.34
39455;BME280;25155;41.890;23.446;2022-09-27T11:39:58;90881.31;;;21.00;56.56
39455;BME280;25155;41.890;23.446;2022-09-27T11:42:49;90876.38;;;20.98;56.92
39455;BME280;25155;41.890;23.446;2022-09-27T11:45:36;90882.81;;;20.97;57.54
39455;BME280;25155;41.890;23.446;2022-09-27T11:48:18;90875.56;;;20.94;57.63
39455;BME280;25155;41.890;23.446;2022-09-27T11:51:00;90876.31;;;20.95;57.42
39455;BME280;25155;41.890;23.446;2022-09-27T11:53:44;90862.31;;;20.94;57.62
39455;BME280;25155;41.890;23.446;2022-09-27T11:56:22;90848.28;;;20.94;58.39
39455;BME280;25155;41.890;23.446;2022-09-27T11:59:18;90858.81;;;20.90;59.23
39455;BME280;25155;41.890;23.446;2022-09-27T12:01:55;90866.75;;;20.90;59.37
39455;BME280;25155;41.890;23.446;2022-09-27T12:04:50;90851.78;;;20.78;59.71
39455;BME280;25155;41.890;23.446;2022-09-27T12:07:26;90872.56;;;20.96;59.79
39455;BME280;25155;41.890;23.446;2022-09-27T12:10:03;90869.16;;;20.95;61.74
39455;BME280;25155;41.890;23.446;2022-09-27T12:12:38;90855.28;;;20.82;61.48
39455;BME280;25155;41.890;23.446;2022-09-27T12:15:13;90873.94;;;20.90;61.85
39455;BME280;25155;41.890;23.446;2022-09-27T12:17:44;90873.19;;;20.89;61.58
39455;BME280;25155;41.890;23.446;2022-09-27T12:20:18;90881.50;;;20.88;62.24
39455;BME280;25155;41.890;23.446;2022-09-27T12:22:54;90882.91;;;20.81;62.28
39455;BME280;25155;41.890;23.446;2022-09-27T12:25:26;90869.94;;;20.76;62.39
39455;BME280;25155;41.890;23.446;2022-09-27T12:28:01;90858.63;;;20.60;65.00
39455;BME280;25155;41.890;23.446;2022-09-27T12:30:33;90852.44;;;20.52;65.85
39455;BME280;25155;41.890;23.446;2022-09-27T12:33:06;90839.56;;;20.51;65.34
39455;BME280;25155;41.890;23.446;2022-09-27T12:35:41;90834.59;;;20.49;66.36
39455;BME280;25155;41.890;23.446;2022-09-27T12:38:17;90826.38;;;20.54;65.76
39455;BME280;25155;41.890;23.446;2022-09-27T12:40:51;90820.03;;;20.59;65.25
39455;BME280;25155;41.890;23.446;2022-09-27T12:43:20;90830.78;;;20.66;64.68
39455;BME280;25155;41.890;23.446;2022-09-27T12:46:02;90845.78;;;20.62;66.67
39455;BME280;25155;41.890;23.446;2022-09-27T12:48:37;90858.16;;;20.54;67.28
39455;BME280;25155;41.890;23.446;2022-09-27T12:51:09;90853.91;;;20.50;66.39
39455;BME280;25155;41.890;23.446;2022-09-27T12:53:52;90870.47;;;20.46;66.29
39455;BME280;25155;41.890;23.446;2022-09-27T12:56:41;90866.91;;;20.39;66.84
39455;BME280;25155;41.890;23.446;2022-09-27T12:59:24;90856.13;;;20.28;68.14
39455;BME280;25155;41.890;23.446;2022-09-27T13:02:25;90838.56;;;20.20;67.05
39455;BME280;25155;41.890;23.446;2022-09-27T13:05:22;90835.25;;;20.23;67.21
39455;BME280;25155;41.890;23.446;2022-09-27T13:11:10;90859.72;;;20.00;66.94
39455;BME280;25155;41.890;23.446;2022-09-27T13:13:43;90832.84;;;19.98;66.82
39455;BME280;25155;41.890;23.446;2022-09-27T13:16:10;90828.38;;;20.02;66.92
39455;BME280;25155;41.890;23.446;2022-09-27T13:18:52;90838.16;;;19.98;66.46
39455;BME280;25155;41.890;23.446;2022-09-27T13:21:55;90833.53;;;19.95;66.94
39455;BME280;25155;41.890;23.446;2022-09-27T13:24:44;90853.78;;;19.87;67.16